Mohler, Washington
Current Conditions -  °F | °C
As of 4:58 AM on Friday 24 Oct 2014 (Local Time) from KSKA Reporting Station
Clear Clear  
Wind Chill: 36°   Ceiling: Unl
Heat Index: 40°   Visibility: 10mi
Dew Point: 40°   Wind: 6mph
Humidity: 97%   Direction: 150°SSE
Pressure: 30.04"   Gusts: NA
Location:  47.4°N, 118.33°W
Report Text: KSKA 241158Z AUTO 15005KT 10SM CLR 05/04 A3004 RMK AO2 SLP182 60000 70006 T00460042 10071 20046 52007 $
Loading
Personal Weather Stations






























Interactive Weather Map
Tropical Storm Tracking
New forecast layout! Learn more

10-Day Weather Forecast

Advertisements
Track Severe Weather on mobile